Tiempo atmosférico en la estación meteorológica de Barcelona, Barcelona (25 m.)



Fecha
DESCASC
Temp. máxima en grados centígrados (hora)
DESCASC
Temp. mínima en grados centígrados (hora)
DESCASC
Temp. media en grados centígrados
DESCASC
Racha de viento máxima en m/sg (hora)
DESCASC
Velocidad máxima media en intervalos de 10 minutos(hora)
DESCASC
Precipitaciones diarias en mm
DESCASC
Precipitaciones de 00:00 a 06:00 en mm
DESCASC
Precipitaciones de 06:00 a 12:00 en mm
DESCASC
Precipitaciones de 12:00 a 18:00 en mm
DESCASC
Precipitaciones de 18:00 a 24:00 en mm
DESCASC
13-10-2019 23.4 (16:50) 20 (07:10) 21.7 7.5 (13:10) 6.67 (19:30) 0 0 0 0 0
12-10-2019 24.8 (13:20) 19 (05:40) 21.9 5.83 (23:40) 5 (23:50) 0 0 0 0 0
11-10-2019 22.9 (15:30) 19 (02:30) 20.9 8.89 (16:50) 5.56 (14:10) 0 0 0 0 0
10-10-2019 21 (15:20) 18 (00:00) 19.5 7.5 (16:50) 5.56 (17:00) 0.1 0 0.1 0 0
09-10-2019 23.9 (11:00) 18.4 (00:00) 21.1 14.17 (18:00) 12.5 (18:00) 0.2 0 0 0 0.2
08-10-2019 24.2 (13:00) 17.6 (00:00) 20.9 12.5 (16:00) 7.5 (14:40) 0 0 0 0 0
07-10-2019 23.3 (13:30) 17.3 (00:00) 20.3 8.61 (14:20) 6.94 (16:10) 0 0 0 0 0
06-10-2019 22.3 (15:50) 18.5 (00:00) 20.4 7.5 (20:50) 5.83 (21:30) 0 0 0 0 0
05-10-2019 22.3 (13:50) 18.4 (00:00) 20.3 9.17 (01:50) 7.5 (01:40) 0 0 0 0 0
04-10-2019 25 (15:40) 17.2 (00:00) 21.1 8.33 (18:40) 6.39 (12:30) 0 0 0 0 0
03-10-2019 23.8 (12:30) 17.2 (00:00) 20.5 8.89 (08:40) 6.39 (14:10) 0 0 0 0 0
02-10-2019 24.8 (15:10) 19.6 (00:00) 22.2 12.78 (00:40) 10.83 (00:30) 0 0 0 0 0
01-10-2019 25.5 (16:40) 19.1 (00:00) 22.3 8.89 (14:10) 7.22 (14:30) 0 0 0 0 0
30-09-2019 25.1 (11:20) 20.1 (00:00) 22.6 7.5 (15:20) 6.39 (16:20) 0 0 0 0 0
29-09-2019 26.8 (14:40) 19.4 (00:00) 23.1 12.78 (17:20) 7.78 (16:20) 0 0 0 0 0
28-09-2019 25.4 (14:50) 21.5 (00:00) 23.4 6.11 (07:50) 5 (08:00) 0 0 0 0 0
27-09-2019 24.3 (15:40) 19.7 (00:00) 22 8.61 (17:10) 6.39 (16:40) 0 0 0 0 0
26-09-2019 25.3 (16:50) 19.5 (00:00) 22.4 10.28 (17:40) 6.94 (17:40) 0 0 0 0 0
25-09-2019 24.6 (12:10) 20.4 (00:00) 22.5 6.94 (00:10) 5.83 (06:10) 0 0 0 0 0
24-09-2019 28.1 (15:40) 19.8 (00:00) 23.9 11.67 (16:30) 8.06 (22:20) 0 0 0 0 0
23-09-2019 23.2 (16:40) 19.4 (00:00) 21.3 11.39 (16:20) 8.06 (15:20) 0 0 0 0 0
22-09-2019 25.5 (18:00) 19.2 (00:00) 22.4 12.22 (22:50) 8.89 (23:00) 2.2 0 0 0 2.2
21-09-2019 22.3 (08:20) 19.9 (00:00) 21.1 15.28 (12:30) 12.22 (12:40) 12 0 2.7 9.3 0
20-09-2019 24.8 (12:50) 19.3 (00:00) 22 8.89 (20:50) 7.5 (19:00) 0 0 0 0 0
19-09-2019 26.6 (11:30) 20.8 (00:00) 23.7 6.11 (15:40) 4.72 (15:10) 0 0 0 0 0
18-09-2019 27.2 (11:20) 20 (00:00) 23.6 6.11 (18:30) 5.28 (18:30) 0 0 0 0 0
17-09-2019 26.5 (12:00) 19.4 (00:00) 22.9 5.56 (18:00) 4.17 (18:00) 0 0 0 0 0
16-09-2019 25.5 (11:00) 20.8 (00:00) 23.1 6.11 (12:50) 5.28 (12:50) 0 0 0 0 0

Gráficas

Temp. máximas Temp. mínimas Temp. medias Precipitaciones Rachas de viento máximas Velocidades máximas media en intervalos de 10 minutos

Datos horarios

Fecha y hora oficial Temperatura (ºC) Velocidad del viento (km/h) Dirección del viento Racha (km/h) Dirección de racha Precipitación (mm) Presión (hPa) Tendencia (hPa) Humedad (%)
2019-10-15 23:00:00 17.1 10 Norte 16 Norte 0 -- -- 51
2019-10-15 22:00:00 17.8 4 Noroeste 15 Noroeste 0 -- -- 45
2019-10-15 21:00:00 18.4 0 Calma 18 Noroeste 0 -- -- 43
2019-10-15 20:00:00 19.1 12 Oeste 26 Noroeste 0 -- -- 42
2019-10-15 19:00:00 20 14 Oeste 23 Oeste 0 -- -- 39
2019-10-15 18:00:00 20.8 13 Oeste 26 Oeste 0 -- -- 37
2019-10-15 17:00:00 21 12 Oeste 27 Noroeste 0 -- -- 38
2019-10-15 16:00:00 20.9 12 Noroeste 29 Sudoeste 0 -- -- 39
2019-10-15 15:00:00 20 14 Noroeste 28 Noroeste 0 -- -- 39
2019-10-15 14:00:00 19.8 13 Noroeste 29 Noroeste 0 -- -- 42
2019-10-15 13:00:00 18.7 12 Noroeste 32 Oeste 0 -- -- 43
2019-10-15 12:00:00 18 10 Noroeste 40 Noroeste 0 -- -- 46
2019-10-15 11:00:00 17.2 17 Noroeste 39 Oeste 0 -- -- 46
2019-10-15 10:00:00 16.5 16 Noroeste 30 Noroeste 0 -- -- 50
2019-10-15 09:00:00 15.3 15 Oeste 28 Oeste 0 -- -- 56
2019-10-15 08:00:00 14.8 14 Oeste 31 Oeste 0 -- -- 60
2019-10-15 07:00:00 15.1 12 Oeste 38 Norte 0 -- -- 60
2019-10-15 06:00:00 15.4 13 Noroeste 37 Noroeste 0 -- -- 58
2019-10-15 05:00:00 16 17 Noroeste 43 Oeste 0 -- -- 57
2019-10-15 04:00:00 16.9 23 Noroeste 59 Noroeste 0 -- -- 56
2019-10-15 03:00:00 17.4 26 Noroeste 55 Noroeste 12.5 -- -- 60
2019-10-15 02:00:00 20.2 4 Norte 9 Noroeste 0.4 -- -- 91
2019-10-15 01:00:00 20.5 6 Oeste 13 Oeste 0 -- -- 90
2019-10-15 00:00:00 20.7 6 Oeste 13 Sudoeste 0 -- -- 90
2019-10-14 23:00:00 20.8 3 Sudoeste 9 Sudoeste 0 -- -- 90
2019-10-14 22:00:00 20.3 3 Sur 18 Este 0 -- -- 93
2019-10-14 21:00:00 20.7 10 Este 19 Este 0 -- -- 94
2019-10-14 20:00:00 21 13 Este 21 Este 0 -- -- 94
2019-10-14 19:00:00 21.1 14 Este 20 Este 1.7 -- -- 94
2019-10-14 18:00:00 21.3 10 Este 17 Este 0 -- -- 93
2019-10-14 17:00:00 21.9 12 Sudeste 17 Sudeste 0 -- -- 92
2019-10-14 16:00:00 22.9 8 Este 23 Este 0 -- -- 88
2019-10-14 15:00:00 23.2 18 Este 24 Este 0 -- -- 88
2019-10-14 14:00:00 22.7 22 Este 29 Este 0 -- -- 86
2019-10-14 13:00:00 22 22 Este 25 Este 0 -- -- 88
2019-10-14 12:00:00 22 22 Este 27 Este 0 -- -- 89
2019-10-14 11:00:00 21.6 13 Este 22 Este 0 -- -- 87
2019-10-14 10:00:00 21.1 17 Este 27 Nordeste 0 -- -- 92
2019-10-14 09:00:00 20.3 18 Este 26 Este 0 -- -- 93
2019-10-14 08:00:00 20.4 15 Este 23 Este 0 -- -- 92
2019-10-14 07:00:00 20.2 8 Norte 19 Nordeste 0 -- -- 90
2019-10-14 06:00:00 20.3 12 Nordeste 22 Este 0 -- -- 91
2019-10-14 05:00:00 20.3 11 Nordeste 22 Este 0 -- -- 93
2019-10-14 04:00:00 20.3 13 Nordeste 18 Nordeste 0 -- -- 93
2019-10-14 03:00:00 20.5 10 Nordeste 23 Este 0 -- -- 94
2019-10-14 02:00:00 20.7 18 Este 26 Este 0 -- -- 94
2019-10-14 01:00:00 20.7 13 Nordeste 22 Este 0 -- -- 94
2019-10-14 00:00:00 20.8 18 Este 24 Este 0 -- -- 94
2019-10-13 23:00:00 20.9 14 Este 20 Este 0 -- -- 93
2019-10-13 22:00:00 21.1 17 Este 22 Este 0 -- -- 93
2019-10-13 21:00:00 21.2 18 Este 26 Sudeste 0 -- -- 93
2019-10-13 20:00:00 21.3 22 Sudeste 27 Sudeste 0 -- -- 93
2019-10-13 19:00:00 21.7 20 Sudeste 23 Sudeste 0 -- -- 92
2019-10-13 18:00:00 22.3 17 Este 19 Sudeste 0 -- -- 91
2019-10-13 17:00:00 23.2 13 Este 18 Este 0 -- -- 88
2019-10-13 16:00:00 22.9 15 Este 18 Este 0 -- -- 91
2019-10-13 15:00:00 23 15 Este 23 Este 0 -- -- 91
2019-10-13 14:00:00 22.7 20 Este 27 Este 0 -- -- 91
2019-10-13 13:00:00 22.2 22 Este 26 Este 0 -- -- 92
2019-10-13 12:00:00 21.7 18 Este 24 Este 0 -- -- 91
2019-10-13 11:00:00 21.7 21 Este 26 Este 0 -- -- 91
2019-10-13 10:00:00 21.5 15 Este 22 Este 0 -- -- 92
2019-10-13 09:00:00 20.8 7 Nordeste 11 Nordeste 0 -- -- 90
2019-10-13 08:00:00 20 5 Norte 12 Norte 0 -- -- 89
2019-10-13 07:00:00 20.3 6 Nordeste 19 Nordeste 0 -- -- 91
2019-10-13 06:00:00 20.6 10 Nordeste 22 Este 0 -- -- 93
2019-10-13 05:00:00 20.9 16 Este 21 Este 0 -- -- 93
2019-10-13 04:00:00 21.1 8 Nordeste 14 Nordeste 0 -- -- 90
2019-10-13 03:00:00 21.2 7 Nordeste 16 Este 0 -- -- 89
2019-10-13 02:00:00 21.2 9 Nordeste 19 Este 0 -- -- 89
2019-10-13 01:00:00 21 13 Este 19 Este 0 -- -- 90
2019-10-13 00:00:00 21 17 Este 21 Este 0 -- -- 91
2019-10-12 23:00:00 21 14 Este 20 Este 0 -- -- 91
2019-10-12 22:00:00 21.2 12 Este 17 Este 0 -- -- 91
2019-10-12 21:00:00 21.1 12 Sudeste 13 Sudeste 0 -- -- 91
2019-10-12 20:00:00 21.2 9 Sudeste 12 Sudeste 0 -- -- 91
2019-10-12 19:00:00 21.7 8 Sudeste 13 Sudeste 0 -- -- 89
2019-10-12 18:00:00 22.1 9 Sudeste 15 Sudeste 0 -- -- 88
2019-10-12 17:00:00 22.7 9 Sudeste 14 Sur 0 -- -- 85
2019-10-12 16:00:00 23.2 10 Sur 18 Sur 0 -- -- 82
2019-10-12 15:00:00 23.2 12 Sur 18 Sur 0 -- -- 82
2019-10-12 14:00:00 23.7 9 Sur 15 Sur 0 -- -- 79
2019-10-12 13:00:00 24.1 7 Sudeste 12 Sudeste 0 -- -- 82
2019-10-12 12:00:00 23.9 5 Este 9 Sudeste 0 -- -- 81
2019-10-12 11:00:00 22.7 2 Nordeste 6 Nordeste 0 -- -- 86
2019-10-12 10:00:00 20.8 4 Norte 9 Nordeste 0 -- -- 89
2019-10-12 09:00:00 19.7 6 Norte 10 Norte 0 -- -- 90
2019-10-12 08:00:00 19.3 6 Norte 10 Norte 0 -- -- 91
2019-10-12 07:00:00 19.4 5 Norte 9 Norte 0 -- -- 91
2019-10-12 06:00:00 19.1 4 Norte 9 Norte 0 -- -- 92
2019-10-12 05:00:00 19.3 3 Norte 6 Norte 0 -- -- 93
2019-10-12 04:00:00 20 2 Nordeste 5 Nordeste 0 -- -- 93
2019-10-12 03:00:00 20 2 Oeste 6 Oeste 0 -- -- 93
2019-10-12 02:00:00 20.6 0 Calma 7 Sudoeste 0 -- -- 93
2019-10-12 01:00:00 20.8 3 Sudoeste 8 Oeste 0 -- -- 93
2019-10-12 00:00:00 21.1 2 Oeste 14 Oeste 0 -- -- 93
2019-10-11 23:00:00 21.2 5 Oeste 16 Oeste 0 -- -- 93
2019-10-11 22:00:00 21.3 7 Oeste 16 Oeste 0 -- -- 93
2019-10-11 21:00:00 21.3 6 Oeste 18 Oeste 0 -- -- 92
2019-10-11 20:00:00 21.7 8 Sudoeste 21 Oeste 0 -- -- 90
2019-10-11 19:00:00 22.2 9 Sudoeste 26 Oeste 0 -- -- 88
2019-10-11 18:00:00 22 15 Sudoeste 30 Sudoeste 0 -- -- 88
2019-10-11 17:00:00 22.8 16 Sudoeste 32 Sudoeste 0 -- -- 83
2019-10-11 16:00:00 22.3 18 Sudoeste 25 Sudoeste 0 -- -- 86
2019-10-11 15:00:00 21.5 14 Sudoeste 26 Sudoeste 0 -- -- 86
2019-10-11 14:00:00 21.6 15 Sur 21 Sudoeste 0 -- -- 83
2019-10-11 13:00:00 22.1 11 Sur 16 Sur 0 -- -- 79
2019-10-11 12:00:00 22.1 5 Sudeste 12 Sudeste 0 -- -- 76
2019-10-11 11:00:00 21.3 4 Nordeste 8 Nordeste 0 -- -- 78
2019-10-11 10:00:00 20.6 0 Calma 10 Norte 0 -- -- 79
2019-10-11 09:00:00 20 6 Norte 13 Norte 0 -- -- 81
2019-10-11 08:00:00 19.3 4 Norte 9 Norte 0 -- -- 83
2019-10-11 07:00:00 19.1 5 Norte 9 Norte 0 -- -- 84
2019-10-11 06:00:00 19.4 2 Norte 6 Norte 0 -- -- 84
2019-10-11 05:00:00 19.3 3 Norte 8 Norte 0 -- -- 84
2019-10-11 04:00:00 19.3 4 Norte 8 Norte 0 -- -- 84
2019-10-11 03:00:00 19.2 3 Norte 8 Norte 0 -- -- 84
2019-10-11 02:00:00 19.2 5 Nordeste 8 Nordeste 0 -- -- 82
2019-10-11 01:00:00 19.4 0 Calma -- -- 0 -- -- 81
2019-10-11 00:00:00 19.5 0 Calma -- -- 0 -- -- 82
2019-10-10 23:00:00 19.4 0 Calma 14 Oeste 0 -- -- 81
2019-10-10 22:00:00 19.3 8 Oeste 15 Oeste 0 -- -- 80
2019-10-10 21:00:00 19.4 8 Oeste 19 Sudoeste 0 -- -- 79
2019-10-10 20:00:00 19.4 14 Sudoeste 24 Sudoeste 0 -- -- 79
2019-10-10 19:00:00 19.6 13 Sudoeste 23 Sudoeste 0 -- -- 78
2019-10-10 18:00:00 19.8 15 Sudoeste 24 Sudoeste 0 -- -- 78
2019-10-10 17:00:00 19.8 20 Sudoeste 27 Sudoeste 0 -- -- 75
2019-10-10 16:00:00 20.8 14 Sudoeste 24 Sudoeste 0 -- -- 70
2019-10-10 15:00:00 20.6 14 Sur 23 Sudoeste 0 -- -- 71
2019-10-10 14:00:00 19.7 11 Sudoeste 20 Sudoeste 0 -- -- 70
2019-10-10 13:00:00 19.2 0 Calma 9 Norte 0 -- -- 82
2019-10-10 12:00:00 18.7 6 Norte 12 Nordeste 0 -- -- 89
2019-10-10 11:00:00 18.4 4 Nordeste 13 Sudoeste 0.1 -- -- 87
2019-10-10 10:00:00 19.1 3 Este 8 Este 0 -- -- 86
2019-10-10 09:00:00 18.7 7 Este 17 Este 0 -- -- 88
2019-10-10 08:00:00 19 2 Nordeste 13 Sudeste 0 -- -- 86
2019-10-10 07:00:00 19.1 3 Oeste 14 Oeste 0 -- -- 79
2019-10-10 06:00:00 19 8 Oeste 14 Oeste 0 -- -- 82
2019-10-10 05:00:00 19.1 8 Oeste 13 Oeste 0 -- -- 82
2019-10-10 04:00:00 19.1 3 Noroeste 9 Noroeste 0 -- -- 82
2019-10-10 03:00:00 19 3 Norte 8 Nordeste 0 -- -- 82
2019-10-10 02:00:00 18.9 3 Norte 7 Norte 0 -- -- 81
2019-10-10 01:00:00 19 4 Nordeste 12 Este 0 -- -- 82
2019-10-10 00:00:00 19.1 11 Este 18 Este 0 -- -- 82
2019-10-09 23:00:00 18.9 13 Este 22 Este 0 -- -- 82
2019-10-09 22:00:00 18.9 18 Este 30 Este 0 -- -- 83
2019-10-09 21:00:00 18.8 20 Este 33 Este 0 -- -- 87
2019-10-09 20:00:00 18.5 24 Este 46 Este 0 -- -- 91
2019-10-09 19:00:00 18.7 39 Este 49 Este 0.2 -- -- 90
2019-10-09 18:00:00 19.3 45 Este 51 Este 0 -- -- 90
2019-10-09 17:00:00 21.8 12 Sur 23 Sudoeste 0 -- -- 91
2019-10-09 16:00:00 22 14 Sudoeste 24 Sudoeste 0 -- -- 88
2019-10-09 15:00:00 22.2 18 Sudoeste 25 Sudoeste 0 -- -- 86
2019-10-09 14:00:00 23 13 Sudoeste 28 Sudoeste 0 -- -- 82
2019-10-09 13:00:00 22.6 19 Sudoeste 28 Sudoeste 0 -- -- 78
2019-10-09 12:00:00 23.4 18 Sudoeste 29 Sudoeste 0 -- -- 70
2019-10-09 11:00:00 23.4 11 Oeste 27 Oeste 0 -- -- 69
2019-10-09 10:00:00 22.6 14 Sudoeste 23 Sudoeste 0 -- -- 73
2019-10-09 09:00:00 21.3 6 Oeste 12 Oeste 0 -- -- 86
2019-10-09 08:00:00 19.8 4 Norte 7 Norte 0 -- -- 90
2019-10-09 07:00:00 19.4 0 Calma 10 Norte 0 -- -- 91
2019-10-09 06:00:00 19.3 7 Norte 9 Norte 0 -- -- 91
2019-10-09 05:00:00 19.7 4 Norte 6 Norte 0 -- -- 90
2019-10-09 04:00:00 20 5 Norte 7 Norte 0 -- -- 89
2019-10-09 03:00:00 20.2 4 Noroeste 6 Norte 0 -- -- 86
2019-10-09 02:00:00 20.5 5 Norte 9 Norte 0 -- -- 84
2019-10-09 01:00:00 21.1 0 Calma 9 Oeste 0 -- -- 83
2019-10-09 00:00:00 21.3 8 Oeste 13 Oeste 0 -- -- 88
2019-10-08 23:00:00 21.5 5 Oeste 13 Sudoeste 0 -- -- 86
2019-10-08 22:00:00 21.6 7 Oeste 19 Sudoeste 0 -- -- 83
2019-10-08 21:00:00 21.9 10 Oeste 32 Oeste 0 -- -- 81
2019-10-08 20:00:00 22.2 13 Oeste 34 Oeste 0 -- -- 78
2019-10-08 19:00:00 23.2 14 Sudoeste 39 Sudoeste 0 -- -- 70
2019-10-08 18:00:00 23.5 21 Sudoeste 40 Sudoeste 0 -- -- 69
2019-10-08 17:00:00 23.9 21 Oeste 42 Oeste 0 -- -- 71
2019-10-08 16:00:00 23.6 24 Sudoeste 45 Sudoeste 0 -- -- 71
2019-10-08 15:00:00 23.7 26 Sudoeste 41 Sudoeste 0 -- -- 66
2019-10-08 14:00:00 23.6 21 Sudoeste 36 Sudoeste 0 -- -- 62
2019-10-08 13:00:00 24 18 Sudoeste 33 Sudoeste 0 -- -- 62
2019-10-08 12:00:00 22.9 19 Sudoeste 31 Sudoeste 0 -- -- 63
2019-10-08 11:00:00 22.5 9 Sudoeste 19 Sudoeste 0 -- -- 68
2019-10-08 10:00:00 20.9 2 Sur 11 Norte 0 -- -- 73
2019-10-08 09:00:00 18.7 8 Norte 13 Norte 0 -- -- 77
2019-10-08 08:00:00 17.9 9 Norte -- -- -- -- -- 78
2019-10-08 07:00:00 18 7 Norte 12 Norte 0 -- -- 78
2019-10-08 06:00:00 18 8 Norte 12 Norte 0 -- -- 77
2019-10-08 05:00:00 18.6 6 Norte 14 Sudoeste 0 -- -- 78
2019-10-08 04:00:00 20.2 12 Sur 22 Sudoeste 0 -- -- 82
2019-10-08 03:00:00 20.2 17 Sur 27 Sur 0 -- -- 79
2019-10-08 02:00:00 20.2 19 Sur 28 Sur 0 -- -- 88
2019-10-08 01:00:00 20.4 20 Sur 25 Sur 0 -- -- 85
2019-10-08 00:00:00 21.2 13 Sur 18 Sur 0 -- -- 65
2019-10-07 23:00:00 20.9 11 Sur 16 Sur 0 -- -- 75
2019-10-07 22:00:00 21.1 7 Sudoeste 10 Sudoeste 0 -- -- 69
2019-10-07 21:00:00 21.5 6 Oeste 13 Sur 0 -- -- 60
2019-10-07 20:00:00 21.4 5 Sudoeste 15 Oeste 0 -- -- 58
2019-10-07 19:00:00 22 12 Oeste 21 Oeste 0 -- -- 56
2019-10-07 18:00:00 22.1 17 Sudoeste 27 Sudoeste 0 -- -- 57
2019-10-07 17:00:00 22.4 18 Sudoeste 29 Sur 0 -- -- 57
2019-10-07 16:00:00 22.4 23 Sudoeste 30 Sudoeste 0 -- -- 59
2019-10-07 15:00:00 22.8 20 Sudoeste 31 Sudoeste 0 -- -- 52
2019-10-07 14:00:00 22.1 20 Sudoeste 30 Sudoeste 0 -- -- 58
2019-10-07 13:00:00 22.3 10 Sudoeste 19 Sudoeste 0 -- -- 48
2019-10-07 12:00:00 21.7 8 Noroeste 17 Norte 0 -- -- 44
2019-10-07 11:00:00 20.3 6 Norte 16 Noroeste 0 -- -- 47
2019-10-07 10:00:00 18.7 10 Noroeste 24 Norte 0 -- -- 55
2019-10-07 09:00:00 17.5 3 Nordeste 23 Norte 0 -- -- 78
2019-10-07 08:00:00 17.6 11 Norte 22 Norte 0 -- -- 73
2019-10-07 07:00:00 18.4 9 Norte 19 Noroeste 0 -- -- 61
2019-10-07 06:00:00 18.6 4 Nordeste 11 Norte 0 -- -- 86
2019-10-07 05:00:00 18.7 8 Norte 13 Norte 0 -- -- 89
2019-10-07 04:00:00 18.7 6 Norte 15 Norte 0 -- -- 89
2019-10-07 03:00:00 19.3 6 Nordeste 22 Nordeste 0 -- -- 88
2019-10-07 02:00:00 19.7 14 Nordeste 24 Nordeste 0 -- -- 88
2019-10-07 01:00:00 20.7 7 Nordeste 22 Sudeste 0 -- -- 89
2019-10-07 00:00:00 20.8 12 Sudeste 18 Sudeste 0 -- -- 88
2019-10-06 23:00:00 20.8 14 Sudeste 21 Sudeste 0 -- -- 89
2019-10-06 22:00:00 20.6 17 Sudeste 24 Sudeste 0 -- -- 88
2019-10-06 21:00:00 20.4 19 Sudeste 27 Sudeste 0 -- -- 87
2019-10-06 20:00:00 20.5 19 Sudeste 24 Sudeste 0 -- -- 87
2019-10-06 19:00:00 20.7 19 Sudeste 23 Este 0 -- -- 86
2019-10-06 18:00:00 21.2 17 Sudeste 24 Sur 0 -- -- 84
2019-10-06 17:00:00 21.1 17 Sur 24 Sur 0 -- -- 83
2019-10-06 16:00:00 21.6 14 Sudeste 20 Sudeste 0 -- -- 78
2019-10-06 15:00:00 21.3 13 Sur 21 Sudeste 0 -- -- 78
2019-10-06 14:00:00 20.8 12 Sudeste 18 Sudeste 0 -- -- 81
2019-10-06 13:00:00 20.2 12 Sudeste 18 Sudeste 0 -- -- 85
2019-10-06 12:00:00 19.8 15 Este 23 Este 0 -- -- 86
2019-10-06 11:00:00 20.1 20 Este 24 Este 0 -- -- 87
2019-10-06 10:00:00 19.7 8 Nordeste 15 Nordeste 0 -- -- 86
2019-10-06 09:00:00 19 6 Norte 12 Nordeste 0 -- -- 88
2019-10-06 08:00:00 18.7 6 Norte 12 Nordeste 0 -- -- 89
2019-10-06 07:00:00 19 5 Norte 11 Nordeste 0 -- -- 89
2019-10-06 06:00:00 19.2 4 Nordeste 10 Nordeste 0 -- -- 89
2019-10-06 05:00:00 19.4 4 Norte 8 Norte 0 -- -- 89
2019-10-06 04:00:00 19.2 5 Norte 8 Norte 0 -- -- 89
2019-10-06 03:00:00 18.9 6 Nordeste 10 Norte 0 -- -- 90
2019-10-06 02:00:00 19.2 5 Norte 8 Nordeste 0 -- -- 89
2019-10-06 01:00:00 19.7 4 Norte 10 Noroeste 0 -- -- 88
2019-10-06 00:00:00 19.8 3 Sudoeste 7 Oeste 0 -- -- 88
2019-10-05 23:00:00 19.9 3 Sudoeste 10 Sur 0 -- -- 87
2019-10-05 22:00:00 20.1 5 Sur 10 Sur 0 -- -- 86
2019-10-05 21:00:00 20 6 Sur 13 Sur 0 -- -- 86
2019-10-05 20:00:00 20 9 Sur 15 Sudeste 0 -- -- 84
2019-10-05 19:00:00 20.3 9 Sudeste 16 Sur 0 -- -- 83
2019-10-05 18:00:00 20.5 12 Sur 19 Sur 0 -- -- 82
2019-10-05 17:00:00 20.9 13 Sur 21 Sur 0 -- -- 80
2019-10-05 16:00:00 21.6 15 Sur 22 Sur 0 -- -- 76
2019-10-05 15:00:00 21 16 Sur 22 Sudeste 0 -- -- 80
2019-10-05 14:00:00 22.2 14 Sudeste 21 Sudeste 0 -- -- 75
2019-10-05 13:00:00 21.6 13 Sudeste 19 Sudeste 0 -- -- 78
2019-10-05 12:00:00 20.9 11 Sudeste 23 Sudeste 0 -- -- 82
2019-10-05 11:00:00 20.5 18 Sudeste 23 Sudeste 0 -- -- 84
2019-10-05 10:00:00 20.4 23 Este 27 Este 0 -- -- 86
2019-10-05 09:00:00 20.2 22 Este 32 Sudeste 0 -- -- 88
2019-10-05 08:00:00 19.1 6 Norte 19 Norte 0 -- -- 88
2019-10-05 07:00:00 18.7 9 Norte 15 Norte 0 -- -- 84
2019-10-05 06:00:00 19.1 7 Norte 15 Norte 0 -- -- 84
2019-10-05 05:00:00 18.8 9 Norte 15 Norte 0 -- -- 83
2019-10-05 04:00:00 19.5 7 Norte 12 Norte 0 -- -- 80
2019-10-05 03:00:00 19.3 6 Norte 27 Nordeste 0 -- -- 80
2019-10-05 02:00:00 20.3 10 Nordeste 33 Este 0 -- -- 83
2019-10-05 01:00:00 19.9 9 Norte 16 Nordeste 0 -- -- 74
2019-10-05 00:00:00 20.4 9 Norte 14 Norte 0 -- -- 74
2019-10-04 23:00:00 21.6 5 Noroeste 11 Oeste 0 -- -- 71
2019-10-04 22:00:00 21.7 8 Oeste 17 Oeste 0 -- -- 72
2019-10-04 21:00:00 21.7 9 Oeste 18 Sudoeste 0 -- -- 73
2019-10-04 20:00:00 22 13 Sudoeste 29 Sudoeste 0 -- -- 70
2019-10-04 19:00:00 22.8 13 Sudoeste 30 Sudoeste 0 -- -- 63
2019-10-04 18:00:00 22.8 17 Sudoeste 26 Sudoeste 0 -- -- 70
2019-10-04 17:00:00 22.7 15 Sur 19 Sudoeste 0 -- -- 62
2019-10-04 16:00:00 24 9 Sur 17 Sudeste 0 -- -- 52
2019-10-04 15:00:00 24.5 8 Sudeste 20 Este 0 -- -- 49
2019-10-04 14:00:00 22.7 15 Este 27 Este 0 -- -- 84
2019-10-04 13:00:00 21.7 22 Este 28 Este 0 -- -- 87
2019-10-04 12:00:00 21.4 22 Este 26 Este 0 -- -- 86
2019-10-04 11:00:00 21.2 14 Este 22 Este 0 -- -- 82
2019-10-04 10:00:00 19.2 10 Norte 18 Norte 0 -- -- 75
2019-10-04 09:00:00 18 9 Norte 21 Norte 0 -- -- 78
2019-10-04 08:00:00 17.4 9 Norte 18 Norte 0 -- -- 82
2019-10-04 07:00:00 17.5 12 Norte 18 Norte 0 -- -- 82
2019-10-04 06:00:00 17.3 10 Norte 16 Norte 0 -- -- 81
2019-10-04 05:00:00 17.6 8 Norte 14 Norte 0 -- -- 81
2019-10-04 04:00:00 17.9 10 Norte 15 Norte 0 -- -- 80
2019-10-04 03:00:00 18.2 9 Norte 15 Nordeste 0 -- -- 77
2019-10-04 02:00:00 18.5 10 Norte 15 Norte 0 -- -- 76
2019-10-04 01:00:00 19.1 8 Norte 12 Norte 0 -- -- 75
2019-10-04 00:00:00 19.6 8 Norte -- -- -- -- -- 73
2019-10-03 23:00:00 20.9 4 Sur 11 Sudoeste 0 -- -- 73
2019-10-03 22:00:00 21 5 Sur 12 Sudoeste 0 -- -- 72
2019-10-03 21:00:00 21.2 8 Oeste 14 Oeste 0 -- -- 65
2019-10-03 20:00:00 21.5 9 Sudoeste 22 Sudoeste 0 -- -- 61
2019-10-03 19:00:00 21.7 15 Sudoeste 26 Sur 0 -- -- 64
2019-10-03 18:00:00 22.3 20 Sudoeste 24 Sudoeste 0 -- -- 58
2019-10-03 17:00:00 22.1 14 Sur 23 Sur 0 -- -- 64
2019-10-03 16:00:00 22.1 15 Sur 24 Sudoeste 0 -- -- 62
2019-10-03 15:00:00 21.6 21 Sudoeste 30 Sudoeste 0 -- -- 64
2019-10-03 14:00:00 21.3 23 Sur 27 Sur 0 -- -- 62
2019-10-03 13:00:00 22.7 13 Sur 21 Sur 0 -- -- 51
2019-10-03 12:00:00 22 6 Norte 23 Norte 0 -- -- 49
2019-10-03 11:00:00 20.1 6 Este 13 Este 0 -- -- 56
2019-10-03 10:00:00 18.7 0 Calma 23 Norte 0 -- -- 59
2019-10-03 09:00:00 17.3 11 Norte 32 Norte 0 -- -- 61
2019-10-03 08:00:00 17.7 8 Noroeste 18 Noroeste 0 -- -- 60
2019-10-03 07:00:00 18.4 10 Noroeste 21 Noroeste 0 -- -- 58
2019-10-03 06:00:00 18.6 13 Noroeste 23 Norte 0 -- -- 58
2019-10-03 05:00:00 19.3 11 Noroeste 20 Norte 0 -- -- 57
2019-10-03 04:00:00 20 4 Norte 12 Noroeste 0 -- -- 68
2019-10-03 03:00:00 19.8 7 Norte 13 Norte 0 -- -- 78
2019-10-03 02:00:00 20 8 Norte 12 Sur 0 -- -- 78
2019-10-03 01:00:00 20.7 8 Sur 13 Sur 0 -- -- 85
2019-10-03 00:00:00 20.8 9 Sur 14 Sur 0 -- -- 86
2019-10-02 23:00:00 21 9 Sur 21 Sudeste 0 -- -- 82
2019-10-02 22:00:00 21.4 15 Sudeste 21 Sudeste 0 -- -- 74
2019-10-02 21:00:00 21.6 16 Sudeste 19 Sudeste 0 -- -- 69
2019-10-02 20:00:00 21.7 9 Sudeste 18 Sudeste 0 -- -- 68
2019-10-02 19:00:00 22.4 14 Sudeste 21 Sudeste 0 -- -- 62
2019-10-02 18:00:00 23 11 Sur 19 Sur 0 -- -- 57
2019-10-02 17:00:00 22.8 17 Sudoeste 23 Sudoeste 0 -- -- 58
2019-10-02 16:00:00 22.7 17 Sur 22 Sudoeste 0 -- -- 66
2019-10-02 15:00:00 24.6 14 Sudeste 19 Este 0 -- -- 64
2019-10-02 14:00:00 23.2 17 Este 22 Este 0 -- -- 73
2019-10-02 13:00:00 23.7 11 Este 15 Sudeste 0 -- -- 70
2019-10-02 12:00:00 22.7 12 Sur 18 Sur 0 -- -- 71
2019-10-02 11:00:00 22.2 9 Noroeste 22 Sudoeste 0 -- -- 53
2019-10-02 10:00:00 21 12 Oeste 23 Oeste 0 -- -- 76
2019-10-02 09:00:00 20.8 8 Oeste 18 Sudoeste 0 -- -- 78
2019-10-02 08:00:00 20.1 8 Sudoeste 19 Sudoeste 0 -- -- 81
2019-10-02 07:00:00 20 9 Sudoeste 15 Sudoeste 0 -- -- 77
2019-10-02 06:00:00 19.8 6 Sur 14 Este 0 -- -- 79
2019-10-02 05:00:00 20.4 7 Este 19 Sudeste 0 -- -- 77
2019-10-02 04:00:00 20.8 21 Sudeste 34 Sudeste 0 -- -- 76
2019-10-02 03:00:00 21.1 26 Sudeste 32 Sudeste 0 -- -- 77
2019-10-02 02:00:00 21.6 30 Sudeste 36 Este 0 -- -- 77
2019-10-02 01:00:00 21.8 31 Este 46 Este 0 -- -- 88
2019-10-02 00:00:00 22.8 22 Este 29 Este 0 -- -- 92
2019-10-01 23:00:00 22.6 14 Nordeste 19 Nordeste 0 -- -- 92
2019-10-01 22:00:00 22.7 6 Nordeste 13 Nordeste 0 -- -- 92
2019-10-01 21:00:00 23.1 5 Este 22 Oeste 0 -- -- 90
2019-10-01 20:00:00 23.2 14 Oeste 28 Oeste 0 -- -- 89
2019-10-01 19:00:00 23.6 11 Sudoeste 28 Sudoeste 0 -- -- 86
2019-10-01 18:00:00 24.3 18 Sudoeste 30 Sudoeste 0 -- -- 83
2019-10-01 17:00:00 24.7 19 Sudoeste 32 Sudoeste 0 -- -- 81
2019-10-01 16:00:00 24 24 Sudoeste 32 Sur 0 -- -- 86
2019-10-01 15:00:00 23.8 25 Sudoeste 32 Sur 0 -- -- 84
2019-10-01 14:00:00 23.7 25 Sur 30 Sudoeste 0 -- -- 82
2019-10-01 13:00:00 23.6 21 Sur 26 Sudoeste 0 -- -- 86
2019-10-01 12:00:00 23.8 11 Sur 16 Sur 0 -- -- 83
2019-10-01 11:00:00 23.7 6 Sudeste 10 Sudeste 0 -- -- 76
2019-10-01 10:00:00 22.2 5 Nordeste 9 Este 0 -- -- 78
2019-10-01 09:00:00 20 4 Norte 10 Norte 0 -- -- 89
2019-10-01 08:00:00 19.2 6 Norte 9 Norte 0 -- -- 90
2019-10-01 07:00:00 19.8 3 Norte 10 Oeste 0 -- -- 89
2019-10-01 06:00:00 20.4 6 Noroeste 10 Noroeste 0 -- -- 86
2019-10-01 05:00:00 20.5 6 Noroeste 14 Oeste 0 -- -- 87
2019-10-01 04:00:00 20.6 8 Oeste 14 Oeste 0 -- -- 87
2019-10-01 03:00:00 21 6 Oeste 16 Noroeste 0 -- -- 86
2019-10-01 02:00:00 21.1 7 Oeste 14 Oeste 0 -- -- 85
2019-10-01 01:00:00 21.8 6 Noroeste 10 Oeste 0 -- -- 84
2019-10-01 00:00:00 22.1 5 Oeste 9 Oeste 0 -- -- 85
2019-09-30 23:00:00 21.8 3 Oeste 11 Sudoeste 0 -- -- 89
2019-09-30 22:00:00 21.7 8 Sudoeste 14 Sudoeste 0 -- -- 89
2019-09-30 21:00:00 21.7 10 Sudoeste 15 Sudoeste 0 -- -- 87
2019-09-30 20:00:00 21.9 12 Sudoeste 18 Sudoeste 0 -- -- 83
2019-09-30 19:00:00 22.6 12 Sudoeste 24 Sudoeste 0 -- -- 78
2019-09-30 18:00:00 22.9 18 Sudoeste 26 Sudoeste 0 -- -- 76
2019-09-30 17:00:00 23.1 20 Sudoeste 27 Sudoeste 0 -- -- 78
2019-09-30 16:00:00 23.4 21 Sudoeste 27 Sudoeste 0 -- -- 76
2019-09-30 15:00:00 23.6 21 Sudoeste 26 Sudoeste 0 -- -- 75
2019-09-30 14:00:00 23.8 20 Sudoeste 23 Sudoeste 0 -- -- 72
2019-09-30 13:00:00 24.3 14 Sur 19 Sudoeste 0 -- -- 69
2019-09-30 12:00:00 24.4 12 Sur 16 Sur 0 -- -- 66
2019-09-30 11:00:00 24.6 6 Sudeste 12 Sur 0 -- -- 70
2019-09-30 10:00:00 23.6 2 Sudeste 10 Norte 0 -- -- 79
2019-09-30 09:00:00 22.2 4 Norte 11 Norte 0 -- -- 84
2019-09-30 08:00:00 20.7 8 Norte 13 Norte 0 -- -- 89
2019-09-30 07:00:00 20.3 7 Norte 14 Norte 0 -- -- 89
2019-09-30 06:00:00 20.2 8 Norte 12 Norte 0 -- -- 91
2019-09-30 05:00:00 20.5 9 Norte 15 Norte 0 -- -- 90
2019-09-30 04:00:00 20.8 7 Norte 13 Norte 0 -- -- 92
2019-09-30 03:00:00 20.9 7 Norte 13 Nordeste 0 -- -- 92
2019-09-30 02:00:00 21.4 0 Calma 3 Norte 0 -- -- 92
2019-09-30 01:00:00 21.9 0 Calma 4 Noroeste 0 -- -- 90
2019-09-30 00:00:00 22.1 3 Sur 11 Oeste 0 -- -- 91
2019-09-29 23:00:00 22.6 5 Oeste 15 Sudoeste 0 -- -- 89
2019-09-29 22:00:00 22.7 8 Sudoeste 25 Oeste 0 -- -- 89
2019-09-29 21:00:00 23.1 13 Oeste 26 Oeste 0 -- -- 88
2019-09-29 20:00:00 23.4 14 Oeste 30 Oeste 0 -- -- 89
2019-09-29 19:00:00 24.5 15 Sudoeste 38 Sudoeste 0 -- -- 84
2019-09-29 18:00:00 24.9 21 Sudoeste 46 Sudoeste 0 -- -- 82
2019-09-29 17:00:00 25.4 21 Sudoeste 41 Sudoeste 0 -- -- 81
2019-09-29 16:00:00 25.7 24 Sudoeste 42 Sudoeste 0 -- -- 77
2019-09-29 15:00:00 26.4 21 Sudoeste 37 Sudoeste 0 -- -- 70
2019-09-29 14:00:00 26 23 Sudoeste 37 Sudoeste 0 -- -- 73
2019-09-29 13:00:00 26 22 Sudoeste 35 Sudoeste 0 -- -- 70
2019-09-29 12:00:00 25.7 11 Sudoeste 22 Sudoeste 0 -- -- 71
2019-09-29 11:00:00 24.4 12 Sudoeste 21 Oeste 0 -- -- 74
2019-09-29 10:00:00 23.5 10 Oeste 20 Oeste 0 -- -- 79
2019-09-29 09:00:00 21.9 7 Oeste 13 Oeste 0 -- -- 86
2019-09-29 08:00:00 19.6 4 Noroeste 7 Norte 0 -- -- 89
2019-09-29 07:00:00 19.9 0 Calma 6 Norte 0 -- -- 89
2019-09-29 06:00:00 20.3 0 Calma 6 Norte 0 -- -- 89
2019-09-29 05:00:00 20.4 0 Calma 5 Norte 0 -- -- 87
2019-09-29 04:00:00 20.3 0 Calma 5 Norte 0 -- -- 87
2019-09-29 03:00:00 20.5 3 Noroeste 6 Norte 0 -- -- 86
2019-09-29 02:00:00 21 0 Calma 9 Norte 0 -- -- 84
2019-09-29 01:00:00 21.3 4 Norte 10 Norte 0 -- -- 82
2019-09-29 00:00:00 22.1 2 Sudoeste 11 Oeste 0 -- -- 86
2019-09-28 23:00:00 21.9 5 Oeste 9 Oeste 0 -- -- 85
2019-09-28 22:00:00 21.9 6 Oeste 14 Oeste 0 -- -- 85
2019-09-28 21:00:00 21.6 8 Oeste 13 Oeste 0 -- -- 84
2019-09-28 20:00:00 21.6 9 Sudoeste 12 Sudoeste 0 -- -- 83
2019-09-28 19:00:00 22.4 7 Sur 14 Sur 0 -- -- 74
2019-09-28 18:00:00 23.1 10 Sur 17 Sudeste 0 -- -- 66
2019-09-28 17:00:00 23.9 11 Sur 18 Sudeste 0 -- -- 64
2019-09-28 16:00:00 24 13 Sudeste 22 Sudeste 0 -- -- 65
2019-09-28 15:00:00 24.8 12 Sudeste 16 Sudeste 0 -- -- 59
2019-09-28 14:00:00 24.2 13 Este 17 Este 0 -- -- 61
2019-09-28 13:00:00 23.9 15 Este 19 Este 0 -- -- 61
2019-09-28 12:00:00 24.1 12 Este 15 Este 0 -- -- 69
2019-09-28 11:00:00 23.8 13 Este 21 Sudeste 0 -- -- 70
2019-09-28 10:00:00 22.8 9 Este 15 Este 0 -- -- 81
2019-09-28 09:00:00 21.7 5 Nordeste 19 Este 0 -- -- 83
2019-09-28 08:00:00 22.2 18 Este 22 Este 0 -- -- 77
2019-09-28 07:00:00 22.1 16 Este 19 Este 0 -- -- 86
2019-09-28 06:00:00 22.2 10 Este 14 Este 0 -- -- 86
2019-09-28 05:00:00 22.2 8 Nordeste 13 Nordeste 0 -- -- 83
2019-09-28 04:00:00 22.2 7 Nordeste 10 Nordeste 0 -- -- 89
2019-09-28 03:00:00 22.3 6 Nordeste 12 Este 0 -- -- 92
2019-09-28 02:00:00 22.2 3 Este 6 Nordeste 0 -- -- 93
2019-09-28 01:00:00 22.2 0 Calma 4 Sudeste 0 -- -- 93
2019-09-28 00:00:00 22.5 2 Sudeste 5 Sudeste 0 -- -- 92
2019-09-27 23:00:00 22.9 0 Calma 15 Oeste 0 -- -- 91
2019-09-27 22:00:00 22.9 8 Oeste 16 Oeste 0 -- -- 91
2019-09-27 21:00:00 23.1 9 Sudoeste 21 Sudoeste 0 -- -- 90
2019-09-27 20:00:00 23.5 12 Sudoeste 24 Sudoeste 0 -- -- 90
2019-09-27 19:00:00 23.4 18 Sudoeste 28 Sudoeste 0 -- -- 91
2019-09-27 18:00:00 23.7 19 Sudoeste 31 Sudoeste 0 -- -- 90
2019-09-27 17:00:00 23.6 23 Sudoeste 30 Sudoeste 0 -- -- 90
2019-09-27 16:00:00 24.1 22 Sudoeste 28 Sudoeste 0 -- -- 89
2019-09-27 15:00:00 24 16 Sudoeste 22 Sudoeste 0 -- -- 86
2019-09-27 14:00:00 23.5 7 Sur 10 Sur 0 -- -- 90
2019-09-27 13:00:00 23.5 5 Sur 10 Sudeste 0 -- -- 87
2019-09-27 12:00:00 23 6 Sur 9 Sur 0 -- -- 85
2019-09-27 11:00:00 24.1 0 Calma 7 Este 0 -- -- 76
2019-09-27 10:00:00 22.8 5 Norte 10 Nordeste 0 -- -- 76
2019-09-27 09:00:00 21 5 Norte 10 Norte 0 -- -- 82
2019-09-27 08:00:00 20.2 7 Norte 12 Norte 0 -- -- 86
2019-09-27 07:00:00 19.8 8 Norte 13 Norte 0 -- -- 86
2019-09-27 06:00:00 20 7 Norte 12 Norte 0 -- -- 88
2019-09-27 05:00:00 19.9 6 Norte 10 Norte 0 -- -- 86
2019-09-27 04:00:00 20.7 0 Calma 5 Norte 0 -- -- 82
2019-09-27 03:00:00 21.2 0 Calma 10 Oeste 0 -- -- 82
2019-09-27 02:00:00 21.8 0 Calma -- -- 0 -- -- 78
2019-09-27 01:00:00 21.9 0 Calma 9 Oeste 0 -- -- 83
2019-09-27 00:00:00 22.4 4 Sudoeste 15 Oeste 0 -- -- 83
2019-09-26 23:00:00 22.5 6 Oeste 18 Oeste 0 -- -- 86
2019-09-26 22:00:00 22.7 9 Oeste 24 Oeste 0 -- -- 85
2019-09-26 21:00:00 22.9 13 Sudoeste 21 Sudoeste 0 -- -- 78
2019-09-26 20:00:00 23.2 10 Sudoeste 30 Oeste 0 -- -- 79
2019-09-26 19:00:00 24 17 Sudoeste 36 Sudoeste 0 -- -- 71
2019-09-26 18:00:00 24.4 20 Sudoeste 37 Sudoeste 0 -- -- 65
2019-09-26 17:00:00 24.5 21 Sudoeste 32 Sudoeste 0 -- -- 65
2019-09-26 16:00:00 24 16 Sur 21 Sur 0 -- -- 66
2019-09-26 15:00:00 24 12 Sur 19 Sudeste 0 -- -- 72
2019-09-26 14:00:00 24.7 12 Sudeste 17 Sudeste 0 -- -- 77
2019-09-26 13:00:00 23.9 10 Sudeste 20 Sudeste 0 -- -- 80
2019-09-26 12:00:00 23.2 16 Este 21 Este 0 -- -- 82
2019-09-26 11:00:00 22.6 9 Este 15 Nordeste 0 -- -- 79
2019-09-26 10:00:00 22 0 Calma 8 Norte 0 -- -- 78
2019-09-26 09:00:00 20.2 2 Norte 9 Norte 0 -- -- 84
2019-09-26 08:00:00 19.6 0 Calma -- -- 0 -- -- 86
2019-09-26 07:00:00 19.8 0 Calma 12 Norte 0 -- -- 85
2019-09-26 06:00:00 20 6 Norte 13 Norte 0 -- -- 84
2019-09-26 05:00:00 20 3 Norte 10 Norte 0 -- -- 84
2019-09-26 04:00:00 20.7 0 Calma 6 Norte 0 -- -- 82
2019-09-26 03:00:00 21.5 3 Sudoeste 14 Sudoeste 0 -- -- 82
2019-09-26 02:00:00 21.2 8 Sudoeste 13 Sudoeste 0 -- -- 83
2019-09-26 01:00:00 21 5 Sudoeste 12 Sudoeste 0 -- -- 82
2019-09-26 00:00:00 21 3 Sur 10 Sur 0 -- -- 80
2019-09-25 23:00:00 20.8 0 Calma 10 Sur 0 -- -- 79
2019-09-25 22:00:00 20.7 6 Sur 12 Sur 0 -- -- 79
2019-09-25 21:00:00 20.6 6 Sur 13 Sur 0 -- -- 78
2019-09-25 20:00:00 20.7 8 Sur 14 Sudeste 0 -- -- 78
2019-09-25 19:00:00 21.2 8 Sur 17 Sudeste 0 -- -- 76
2019-09-25 18:00:00 22.1 12 Sudeste 19 Sudeste 0 -- -- 72
2019-09-25 17:00:00 22.6 14 Sudeste 23 Sudeste 0 -- -- 70
2019-09-25 16:00:00 22.6 14 Sudeste 21 Sudeste 0 -- -- 68
2019-09-25 15:00:00 22.3 13 Sur 19 Sudeste 0 -- -- 68
2019-09-25 14:00:00 23.5 13 Sudeste 20 Sudeste 0 -- -- 64
2019-09-25 13:00:00 23.8 11 Sudeste 19 Este 0 -- -- 61
2019-09-25 12:00:00 24 7 Sudeste 12 Sudeste 0 -- -- 60
2019-09-25 11:00:00 23.3 8 Sudeste 12 Sudeste 0 -- -- 62
2019-09-25 10:00:00 21.9 4 Este 11 Sudeste 0 -- -- 74
2019-09-25 09:00:00 21.2 3 Este 6 Este 0 -- -- 83
2019-09-25 08:00:00 20.6 5 Este 12 Este 0 -- -- 86
2019-09-25 07:00:00 20.6 12 Este 25 Este 0 -- -- 88
2019-09-25 06:00:00 20.7 19 Este 24 Este 0 -- -- 89
2019-09-25 05:00:00 20.9 10 Nordeste 16 Nordeste 0 -- -- 82
2019-09-25 04:00:00 21.1 10 Nordeste 14 Nordeste 0 -- -- 89
2019-09-25 03:00:00 21.1 8 Nordeste 15 Este 0 -- -- 89
2019-09-25 02:00:00 21 11 Nordeste 19 Este 0 -- -- 89
2019-09-25 01:00:00 21 11 Nordeste 25 Este 0 -- -- 89
2019-09-25 00:00:00 20.9 15 Nordeste 31 Este 0 -- -- 92
2019-09-24 23:00:00 21.4 22 Este 35 Este 0 -- -- 92
2019-09-24 22:00:00 21.9 27 Este 36 Este 0 -- -- 93
2019-09-24 21:00:00 24.1 0 Calma 30 Oeste 0 -- -- 78
2019-09-24 20:00:00 23.9 11 Oeste 37 Oeste 0 -- -- 82
2019-09-24 19:00:00 25.8 18 Oeste 40 Oeste 0 -- -- 59
2019-09-24 18:00:00 26.5 18 Oeste 37 Oeste 0 -- -- 59
2019-09-24 17:00:00 26.9 23 Oeste 42 Oeste 0 -- -- 56
2019-09-24 16:00:00 27.6 19 Oeste 32 Oeste 0 -- -- 56
2019-09-24 15:00:00 27 18 Oeste 39 Sudoeste 0 -- -- 58
2019-09-24 14:00:00 27.1 17 Oeste 33 Oeste 0 -- -- 55
2019-09-24 13:00:00 26.7 14 Sudoeste 35 Oeste 0 -- -- 56
2019-09-24 12:00:00 25.6 17 Oeste 32 Sudoeste 0 -- -- 54
2019-09-24 11:00:00 23.8 13 Oeste 24 Oeste 0 -- -- 58
2019-09-24 10:00:00 24.3 4 Sudeste 14 Oeste 0 -- -- 57
2019-09-24 09:00:00 21.1 6 Sudoeste 9 Sudoeste 0 -- -- 70
2019-09-24 08:00:00 -- 0 Calma 4 Sudoeste 0 -- -- --
2019-09-24 07:00:00 20.4 0 Calma 12 Oeste 0 -- -- 70
2019-09-24 06:00:00 19.9 5 Oeste 10 Noroeste 0 -- -- 87
2019-09-24 05:00:00 20.2 7 Noroeste 16 Noroeste 0 -- -- 85
2019-09-24 04:00:00 20.8 9 Oeste 17 Oeste 0 -- -- 85
2019-09-24 03:00:00 20.7 10 Oeste 15 Oeste 0 -- -- 84
2019-09-24 02:00:00 21.1 2 Oeste 14 Noroeste 0 -- -- 82
2019-09-24 01:00:00 21.2 5 Oeste 8 Oeste 0 -- -- 82
2019-09-24 00:00:00 21.5 6 Oeste 25 Oeste 0 -- -- 78
2019-09-23 23:00:00 21.7 15 Oeste 26 Oeste 0 -- -- 76
2019-09-23 22:00:00 21.7 9 Oeste 17 Oeste 0 -- -- 74
2019-09-23 21:00:00 21.9 9 Oeste 17 Sudoeste 0 -- -- 69
2019-09-23 20:00:00 22.1 12 Sudoeste 30 Sudoeste 0 -- -- 67
2019-09-23 19:00:00 22.3 18 Sudoeste 33 Sudoeste 0 -- -- 67
2019-09-23 18:00:00 22.3 20 Sudoeste 37 Sudoeste 0 -- -- 66
2019-09-23 17:00:00 22.6 27 Sudoeste 41 Sudoeste 0 -- -- 67
2019-09-23 16:00:00 22.4 28 Sudoeste 38 Sudoeste 0 -- -- 69
2019-09-23 15:00:00 22 23 Sudoeste 33 Sudoeste 0 -- -- 69
2019-09-23 14:00:00 21.7 20 Sudoeste 28 Sur 0 -- -- 74
2019-09-23 13:00:00 22.5 20 Sur 25 Sudoeste 0 -- -- 66
2019-09-23 12:00:00 21.9 15 Sur 19 Sudoeste 0 -- -- 66
2019-09-23 11:00:00 22.1 8 Sur 14 Sudoeste 0 -- -- 65
2019-09-23 10:00:00 21.3 10 Sudoeste 14 Sudoeste 0 -- -- 66
2019-09-23 09:00:00 20.4 5 Oeste 9 Sudoeste 0 -- -- 71
2019-09-23 08:00:00 19.6 0 Calma 6 Norte 0 -- -- 72
2019-09-23 07:00:00 19.5 5 Norte 8 Norte 0 -- -- 70
2019-09-23 06:00:00 19.6 5 Norte 16 Este 0 -- -- 72
2019-09-23 05:00:00 19.8 10 Este 19 Este 0 -- -- 74
2019-09-23 04:00:00 20.2 16 Este 27 Este 0 -- -- 77
2019-09-23 03:00:00 20.3 22 Este 26 Este 0 -- -- 71
2019-09-23 02:00:00 20.3 18 Este 28 Este 0 -- -- 89
2019-09-23 01:00:00 20.4 24 Este 31 Este 0 -- -- 92
2019-09-23 00:00:00 20.8 24 Este 37 Este 0 -- -- 92
2019-09-22 23:00:00 21 32 Este 44 Este 0.1 -- -- 92
2019-09-22 22:00:00 22.7 8 Oeste 34 Oeste 0.9 -- -- 89
2019-09-22 21:00:00 22 20 Oeste 39 Oeste 1.2 -- -- 90
2019-09-22 20:00:00 23.7 13 Sudoeste 34 Sudoeste 0 -- -- 86
2019-09-22 19:00:00 24.3 18 Sudoeste 32 Sudoeste 0 -- -- 82
2019-09-22 18:00:00 25.3 16 Sudoeste 32 Sudoeste 0 -- -- 77
2019-09-22 17:00:00 24.5 19 Sudoeste 31 Sudoeste 0 -- -- 86
2019-09-22 16:00:00 25.2 18 Sudoeste 31 Sudoeste 0 -- -- 78
2019-09-22 15:00:00 23.8 24 Sur 31 Sur 0 -- -- 88
2019-09-22 14:00:00 23.7 22 Sudoeste 32 Sudoeste 0 -- -- 87
2019-09-22 13:00:00 24.2 21 Sudoeste 32 Sudoeste 0 -- -- 83
2019-09-22 12:00:00 24.4 12 Sudoeste 24 Oeste 0 -- -- 77
2019-09-22 11:00:00 23.3 8 Sudoeste 18 Sudoeste 0 -- -- 79
2019-09-22 10:00:00 22.4 11 Oeste 17 Oeste 0 -- -- 79
2019-09-22 09:00:00 21.2 4 Noroeste 12 Oeste 0 -- -- 83
2019-09-22 08:00:00 19.3 5 Norte 9 Norte 0 -- -- 89
2019-09-22 07:00:00 19.5 6 Norte 9 Norte 0 -- -- 88
2019-09-22 06:00:00 20 0 Calma 7 Norte 0 -- -- 87
2019-09-22 05:00:00 20.3 4 Noroeste 13 Norte 0 -- -- 83
2019-09-22 04:00:00 20 9 Norte 17 Noroeste 0 -- -- 86
2019-09-22 03:00:00 19.9 8 Norte 15 Norte 0 -- -- 87
2019-09-22 02:00:00 19.8 6 Norte 12 Noroeste 0 -- -- 87
2019-09-22 01:00:00 20.1 6 Norte 9 Nordeste 0 -- -- 86
2019-09-22 00:00:00 20.2 5 Nordeste 11 Nordeste 0 -- -- 85
2019-09-21 23:00:00 20.4 9 Nordeste 22 Este 0 -- -- 86
2019-09-21 22:00:00 20.7 22 Este 36 Este 0 -- -- 86
2019-09-21 21:00:00 20.5 31 Este 44 Este 0 -- -- 86
2019-09-21 20:00:00 20.8 36 Este 41 Este 0 -- -- 88
2019-09-21 19:00:00 21 30 Este 36 Este 0 -- -- 90
2019-09-21 18:00:00 20.7 25 Este 36 Este 0 -- -- 92
2019-09-21 17:00:00 20.6 30 Este 38 Este 0 -- -- 93
2019-09-21 16:00:00 20.5 16 Este 27 Este 0 -- -- 92
2019-09-21 15:00:00 20.1 9 Nordeste 33 Este 6.6 -- -- 93
2019-09-21 14:00:00 20.7 7 Nordeste 42 Este 2.5 -- -- 92
2019-09-21 13:00:00 21.1 37 Este 55 Este 0.2 -- -- 89
2019-09-21 12:00:00 21.1 30 Este 40 Este 0.1 -- -- 93
2019-09-21 11:00:00 21.2 8 Nordeste 15 Nordeste 1.4 -- -- 93
2019-09-21 10:00:00 21.3 9 Norte 15 Norte 0.3 -- -- 93
2019-09-21 09:00:00 21.6 8 Norte 16 Norte 0.9 -- -- 90
2019-09-21 08:00:00 21.9 6 Nordeste 12 Norte 0 -- -- 81
2019-09-21 07:00:00 21.7 5 Norte 14 Noroeste 0 -- -- 81
2019-09-21 06:00:00 21.6 7 Norte 14 Norte 0 -- -- 81
2019-09-21 05:00:00 21.5 9 Norte 29 Este 0 -- -- 83
2019-09-21 04:00:00 21.8 23 Este 31 Este 0 -- -- 87
2019-09-21 03:00:00 21.6 20 Este 31 Este 0 -- -- 83
2019-09-21 02:00:00 21.6 23 Este 29 Este 0 -- -- 86
2019-09-21 01:00:00 21.5 24 Este 28 Este 0 -- -- 88
2019-09-21 00:00:00 21.5 18 Este 26 Este 0 -- -- 90
2019-09-20 23:00:00 21.6 21 Este 29 Este 0 -- -- 92
2019-09-20 22:00:00 21.8 24 Este 32 Este 0 -- -- 92
2019-09-20 21:00:00 21.9 27 Este 32 Este 0 -- -- 90
2019-09-20 20:00:00 22 27 Este 31 Este 0 -- -- 91
2019-09-20 19:00:00 22.2 27 Este 32 Este 0 -- -- 91
2019-09-20 18:00:00 22.5 24 Este 30 Este 0 -- -- 90
2019-09-20 17:00:00 23.1 22 Este 28 Este 0 -- -- 85
2019-09-20 16:00:00 23.2 21 Este 25 Este 0 -- -- 81
2019-09-20 15:00:00 23.5 19 Este 23 Este 0 -- -- 78
2019-09-20 14:00:00 24 17 Este 21 Este 0 -- -- 75
2019-09-20 13:00:00 24.3 13 Este 20 Este 0 -- -- 68
2019-09-20 12:00:00 23.6 16 Este 21 Este 0 -- -- 69
2019-09-20 11:00:00 23 17 Este 22 Este 0 -- -- 64
2019-09-20 10:00:00 22.6 7 Nordeste 13 Este 0 -- -- 69
2019-09-20 09:00:00 21.4 6 Norte 12 Norte 0 -- -- 73
2019-09-20 08:00:00 19.6 10 Norte 18 Norte 0 -- -- 78
2019-09-20 07:00:00 19.6 11 Norte 17 Norte 0 -- -- 81
2019-09-20 06:00:00 19.9 8 Norte 12 Norte 0 -- -- 84
2019-09-20 05:00:00 20 8 Norte 18 Norte 0 -- -- 84
2019-09-20 04:00:00 19.9 9 Norte 12 Norte 0 -- -- 84
2019-09-20 03:00:00 20.2 6 Norte 13 Norte 0 -- -- 86
2019-09-20 02:00:00 20.8 4 Norte 7 Nordeste 0 -- -- 87
2019-09-20 01:00:00 20.9 4 Este 5 Este 0 -- -- 89
2019-09-20 00:00:00 21.3 3 Este 8 Este 0 -- -- 89
2019-09-19 23:00:00 21.3 5 Este 9 Este 0 -- -- 89
2019-09-19 22:00:00 21.5 7 Este 12 Este 0 -- -- 89
2019-09-19 21:00:00 21.7 7 Este 17 Este 0 -- -- 87
2019-09-19 20:00:00 21.9 14 Este 19 Este 0 -- -- 85
2019-09-19 19:00:00 23 12 Este 18 Este 0 -- -- 82
2019-09-19 18:00:00 23.5 11 Sudeste 19 Sudeste 0 -- -- 75
2019-09-19 17:00:00 24.7 10 Sur 21 Sudeste 0 -- -- 72
2019-09-19 16:00:00 24.8 14 Sudeste 22 Sudeste 0 -- -- 68
2019-09-19 15:00:00 25.2 17 Sudeste 20 Sudeste 0 -- -- 65
2019-09-19 14:00:00 25.1 16 Sudeste 19 Sudeste 0 -- -- 74
2019-09-19 13:00:00 24.8 15 Sudeste 19 Sudeste 0 -- -- 76
2019-09-19 12:00:00 26 10 Sudeste 12 Este 0 -- -- 58
2019-09-19 11:00:00 26.1 10 Este 14 Este 0 -- -- 54
2019-09-19 10:00:00 24.5 2 Norte 9 Norte 0 -- -- 62
2019-09-19 09:00:00 21.9 8 Norte 10 Norte 0 -- -- 70
2019-09-19 08:00:00 21 2 Norte 8 Oeste 0 -- -- 74
2019-09-19 07:00:00 22 5 Oeste 10 Oeste 0 -- -- 80
2019-09-19 06:00:00 21.9 0 Calma 8 Oeste 0 -- -- 84
2019-09-19 05:00:00 22 4 Norte 7 Norte 0 -- -- 85
2019-09-19 04:00:00 22.3 4 Oeste 6 Norte 0 -- -- 87
2019-09-19 03:00:00 22.2 4 Norte 6 Norte 0 -- -- 91
2019-09-19 02:00:00 22.6 0 Calma 9 Sudeste 0 -- -- 93
2019-09-19 01:00:00 23 10 Este 17 Este 0 -- -- 92
2019-09-19 00:00:00 23.2 3 Este 20 Sudoeste 0 -- -- 90
2019-09-18 23:00:00 24.2 6 Sudeste 17 Este 0 -- -- 76
2019-09-18 22:00:00 23 3 Sudoeste 10 Sudoeste 0 -- -- 90
2019-09-18 21:00:00 22.5 6 Sudoeste 10 Sudoeste 0 -- -- 90
2019-09-18 20:00:00 22.8 4 Sudoeste 8 Este 0 -- -- 87
2019-09-18 19:00:00 24 8 Sudeste 22 Este 0 -- -- 81
2019-09-18 18:00:00 24.5 10 Este 16 Este 0 -- -- 83
2019-09-18 17:00:00 25.1 12 Este 18 Sudeste 0 -- -- 78
2019-09-18 16:00:00 25.7 15 Sudeste 18 Sudeste 0 -- -- 76
2019-09-18 15:00:00 25.8 15 Sudeste 18 Sudeste 0 -- -- 77
2019-09-18 14:00:00 25 14 Este 16 Este 0.4 -- -- 81
2019-09-18 13:00:00 25.4 11 Este 15 Este 0 -- -- 72
2019-09-18 12:00:00 26 9 Este 12 Este 0 -- -- 71
2019-09-18 11:00:00 26.7 4 Sur 9 Este 0 -- -- 55
2019-09-18 10:00:00 24.6 3 Norte 13 Norte 0 -- -- 61
2019-09-18 09:00:00 22.1 6 Norte 12 Norte 0 -- -- 68
2019-09-18 08:00:00 20.2 7 Norte 12 Norte 0 -- -- 74
2019-09-18 07:00:00 20.6 0 Calma 12 Sudoeste 0 -- -- 77
2019-09-18 06:00:00 20.1 7 Norte 11 Norte 0 -- -- 75
2019-09-18 05:00:00 20.7 3 Norte 6 Norte 0 -- -- 82
2019-09-18 04:00:00 21 2 Norte 11 Nordeste 0 -- -- 82
2019-09-18 03:00:00 21.6 5 Oeste 13 Oeste 0 -- -- 82
2019-09-18 02:00:00 21.8 8 Oeste 14 Oeste 0 -- -- 84
2019-09-18 01:00:00 22.1 9 Sur 14 Sudoeste 0 -- -- 88
2019-09-18 00:00:00 22.3 6 Oeste 18 Sudoeste 0 -- -- 86
2019-09-17 23:00:00 22.3 9 Oeste 16 Sudoeste 0 -- -- 86
2019-09-17 22:00:00 22.2 8 Sudoeste 9 Sudoeste 0 -- -- 91
2019-09-17 21:00:00 22.4 4 Sur 11 Sur 0 -- -- 90